Time;durP1;ratioP1;P1;durP2;ratioP2;P2;SDS_P1;SDS_P2;PMS_P1;PMS_P2;Temp;Humidity;BMP_temperature;BMP_pressure;BME280_temperature;BME280_humidity;BME280_pressure;Samples;Min_cycle;Max_cycle;Signal;HPM_P1;HPM_P2
2023/10/28 00:01:06;;;;;;;4.20;3.83;;;12.50;96.00;;;14.11;70.15;99530.53;3080981;46;20467;-66
2023/10/28 00:03:34;;;;;;;4.03;3.40;;;12.40;95.90;;;14.11;70.34;99527.06;3081623;46;20432;-66
2023/10/28 00:06:03;;;;;;;4.30;3.53;;;12.40;96.00;;;14.10;70.05;99522.78;3081373;46;20456;-67
2023/10/28 00:08:31;;;;;;;4.13;3.73;;;12.40;96.00;;;14.10;70.09;99528.09;3081082;46;20427;-67
2023/10/28 00:11:00;;;;;;;4.57;4.17;;;12.40;96.00;;;14.11;70.30;99527.06;3080927;46;20443;-67
2023/10/28 00:13:30;;;;;;;4.80;3.57;;;12.40;96.10;;;14.10;69.86;99528.09;3081051;46;20514;-67
2023/10/28 00:15:58;;;;;;;4.60;4.03;;;12.40;96.10;;;14.11;70.14;99527.06;3080334;46;20439;-68
2023/10/28 00:18:28;;;;;;;5.03;3.80;;;12.40;96.20;;;14.13;70.21;99525.00;3081003;46;20998;-68
2023/10/28 00:20:56;;;;;;;4.03;3.73;;;12.40;96.10;;;14.11;70.04;99521.78;3080779;46;21024;-68
2023/10/28 00:23:25;;;;;;;8.80;3.97;;;12.40;96.10;;;14.10;70.15;99525.44;3080904;46;20469;-67
2023/10/28 00:26:04;;;;;;;4.10;3.70;;;12.40;96.10;;;14.07;69.87;99536.50;3079573;46;20431;-67
2023/10/28 00:28:33;;;;;;;6.00;3.67;;;12.40;96.00;;;14.07;69.70;99539.16;3079912;46;20529;-67
2023/10/28 00:31:02;;;;;;;5.10;4.00;;;12.40;96.00;;;14.07;70.50;99539.16;3080702;46;20469;-65
2023/10/28 00:33:31;;;;;;;5.40;3.80;;;12.40;96.20;;;14.10;70.04;99536.03;3079641;46;20492;-67
2023/10/28 00:35:59;;;;;;;5.17;4.77;;;12.40;96.20;;;14.09;69.95;99539.72;3080580;46;20910;-67
2023/10/28 00:38:28;;;;;;;4.93;4.20;;;12.40;96.10;;;14.04;69.79;99543.06;3080783;46;20461;-65
2023/10/28 00:40:57;;;;;;;6.97;4.40;;;12.40;95.90;;;13.97;69.55;99541.53;3080627;46;20561;-68
2023/10/28 00:43:25;;;;;;;6.07;5.03;;;12.30;95.80;;;13.92;69.95;99544.03;3081117;46;20427;-67
2023/10/28 00:45:56;;;;;;;6.67;5.13;;;12.30;95.70;;;13.84;69.29;99541.69;3080760;46;20560;-67
2023/10/28 00:48:26;;;;;;;5.90;5.03;;;12.30;95.60;;;13.76;69.71;99542.03;3080658;46;20455;-67
2023/10/28 00:50:55;;;;;;;5.83;5.23;;;12.20;95.50;;;13.69;69.64;99541.31;3080885;46;20494;-67
2023/10/28 00:53:25;;;;;;;6.30;5.67;;;12.20;95.60;;;13.60;69.94;99545.31;3083269;46;21115;-68
2023/10/28 00:55:54;;;;;;;6.23;5.63;;;12.10;95.50;;;13.52;70.40;99538.50;3083289;46;20552;-66
2023/10/28 00:58:22;;;;;;;5.93;5.33;;;12.10;95.60;;;13.44;70.50;99542.25;3083134;46;20431;-67
2023/10/28 01:00:51;;;;;;;6.07;5.03;;;12.00;95.60;;;13.43;70.72;99537.97;3082000;46;20506;-67
2023/10/28 01:03:20;;;;;;;6.30;5.33;;;12.00;95.80;;;13.46;70.75;99537.53;3082430;46;20481;-67
2023/10/28 01:05:49;;;;;;;6.07;5.40;;;12.00;95.90;;;13.45;70.55;99533.25;3083112;46;20455;-67
2023/10/28 01:08:17;;;;;;;5.60;4.80;;;11.90;95.90;;;13.43;70.55;99535.31;3083202;46;20503;-69
2023/10/28 01:10:45;;;;;;;7.73;5.23;;;11.90;96.00;;;13.41;71.06;99534.75;3084756;46;20590;-66
2023/10/28 01:13:14;;;;;;;5.67;5.17;;;11.90;95.90;;;13.41;70.70;99532.09;3084559;46;20448;-64
2023/10/28 01:15:42;;;;;;;5.93;4.77;;;11.90;96.10;;;13.44;71.20;99531.66;3083254;46;20477;-68
2023/10/28 01:18:11;;;;;;;5.60;5.10;;;11.90;96.30;;;13.50;71.22;99524.69;3083223;46;20991;-66
2023/10/28 01:20:40;;;;;;;7.00;5.50;;;11.90;96.40;;;13.54;71.28;99534.59;3082701;46;20450;-67
2023/10/28 01:23:09;;;;;;;6.07;5.47;;;11.90;96.40;;;13.55;71.16;99528.25;3083173;46;21073;-66
2023/10/28 01:25:37;;;;;;;7.30;6.60;;;11.90;96.40;;;13.53;70.53;99530.31;3082650;46;20517;-69
2023/10/28 01:28:07;;;;;;;7.87;5.73;;;11.90;96.20;;;13.51;70.60;99532.38;3083135;46;20456;-67
2023/10/28 01:30:37;;;;;;;8.60;6.60;;;11.90;96.20;;;13.50;70.64;99529.97;3082601;46;20556;-67
2023/10/28 01:33:06;;;;;;;7.87;6.47;;;11.90;96.20;;;13.49;70.65;99523.06;3082464;46;20476;-68
2023/10/28 01:35:34;;;;;;;6.10;5.47;;;11.90;96.20;;;13.52;70.84;99518.16;3082918;46;20525;-67
2023/10/28 01:38:04;;;;;;;8.40;6.10;;;11.90;96.40;;;13.58;71.44;99522.53;3082928;46;21071;-67
2023/10/28 01:40:33;;;;;;;7.50;6.00;;;11.90;96.60;;;13.64;70.89;99530.59;3082338;46;20468;-67
2023/10/28 01:43:01;;;;;;;7.13;6.03;;;11.90;96.60;;;13.65;71.15;99532.19;3082610;46;20450;-66
2023/10/28 01:45:30;;;;;;;7.73;6.10;;;12.00;96.50;;;13.64;70.78;99531.41;3082752;46;20451;-67
2023/10/28 01:47:58;;;;;;;7.07;5.80;;;12.00;96.40;;;13.57;70.72;99531.47;3082713;46;20504;-67
2023/10/28 01:50:27;;;;;;;6.90;6.20;;;12.00;96.10;;;13.49;70.55;99534.47;3082290;46;20538;-67
2023/10/28 01:52:55;;;;;;;9.17;6.17;;;12.00;96.00;;;13.42;70.98;99533.72;3081768;46;20516;-66
2023/10/28 01:55:24;;;;;;;8.53;6.77;;;11.90;96.30;;;13.39;71.20;99528.06;3082694;46;20427;-67
2023/10/28 01:57:52;;;;;;;7.10;6.40;;;11.90;96.00;;;13.37;70.84;99530.94;3082647;46;21145;-66
2023/10/28 02:00:21;;;;;;;8.20;6.37;;;11.90;96.10;;;13.37;71.35;99540.69;3082138;46;20439;-66
2023/10/28 02:02:50;;;;;;;7.20;6.37;;;11.90;96.20;;;13.33;71.16;99539.53;3082191;43;20453;-68
2023/10/28 02:05:19;;;;;;;7.37;5.93;;;11.80;96.20;;;13.30;71.19;99540.78;3082692;46;20588;-67
2023/10/28 02:07:47;;;;;;;8.90;7.07;;;11.80;96.20;;;13.30;71.62;99540.78;3082757;46;20511;-68
2023/10/28 02:10:16;;;;;;;7.93;7.13;;;11.80;96.30;;;13.29;71.39;99536.53;3082056;46;20451;-67
2023/10/28 02:12:45;;;;;;;7.70;6.70;;;11.80;96.30;;;13.29;71.53;99536.53;3082639;46;21097;-66
2023/10/28 02:15:17;;;;;;;7.13;6.13;;;11.80;96.40;;;13.29;71.43;99527.78;3082574;46;21121;-67
2023/10/28 02:17:46;;;;;;;8.60;6.33;;;11.70;96.40;;;13.27;71.70;99535.94;3082307;46;20431;-65
2023/10/28 02:20:14;;;;;;;9.73;7.67;;;11.70;96.40;;;13.27;71.85;99535.13;3081836;46;20497;-68
2023/10/28 02:22:43;;;;;;;7.47;6.70;;;11.70;96.40;;;13.27;71.84;99533.28;3082004;46;21101;-68
2023/10/28 02:25:11;;;;;;;7.37;6.57;;;11.70;96.50;;;13.29;71.63;99527.78;3082374;46;20569;-66
2023/10/28 02:27:39;;;;;;;10.07;7.20;;;11.70;96.60;;;13.26;71.90;99533.53;3081987;46;20550;-66
2023/10/28 02:30:11;;;;;;;7.77;6.17;;;11.70;96.50;;;13.22;71.75;99538.44;3081698;46;20455;-67
2023/10/28 02:32:40;;;;;;;8.17;6.77;;;11.70;96.50;;;13.23;71.87;99537.41;3082538;46;20554;-66
2023/10/28 02:35:08;;;;;;;9.33;7.20;;;11.70;96.60;;;13.21;72.20;99531.56;3081910;46;20569;-66
2023/10/28 02:37:39;;;;;;;8.63;7.63;;;11.70;96.60;;;13.22;72.15;99529.69;3082504;46;20443;-67
2023/10/28 02:40:08;;;;;;;7.57;6.70;;;11.70;96.60;;;13.19;72.02;99536.22;3081977;46;20441;-66
2023/10/28 02:42:37;;;;;;;10.07;7.53;;;11.70;96.60;;;13.20;72.06;99529.94;3082249;46;21007;-67
2023/10/28 02:45:09;;;;;;;10.07;7.60;;;11.70;96.70;;;13.19;72.32;99530.94;3081922;46;21104;-67
2023/10/28 02:47:37;;;;;;;10.33;7.50;;;11.70;96.70;;;13.15;72.09;99521.84;3082434;46;20501;-66
2023/10/28 02:50:08;;;;;;;8.43;6.70;;;11.70;96.70;;;13.15;72.55;99516.56;3081627;46;20497;-66
2023/10/28 02:52:36;;;;;;;9.40;7.33;;;11.60;96.70;;;13.16;72.44;99518.19;3082070;46;20439;-67
2023/10/28 02:55:06;;;;;;;7.10;6.40;;;11.70;96.80;;;13.14;72.57;99525.53;3081751;46;21024;-65
2023/10/28 02:57:34;;;;;;;9.97;7.07;;;11.60;96.80;;;13.17;72.53;99529.56;3082230;46;20464;-67
2023/10/28 03:00:06;;;;;;;9.33;6.70;;;11.60;96.90;;;13.21;72.58;99526.28;3081518;46;20440;-66
2023/10/28 03:02:35;;;;;;;8.47;6.73;;;11.60;97.00;;;13.26;72.83;99529.06;3082163;46;20460;-67
2023/10/28 03:05:05;;;;;;;8.93;7.40;;;11.70;97.10;;;13.31;72.52;99523.88;3081697;46;20428;-66
2023/10/28 03:07:33;;;;;;;7.70;6.97;;;11.70;97.20;;;13.36;72.34;99529.31;3082109;46;20448;-66
2023/10/28 03:10:02;;;;;;;8.10;6.97;;;11.70;97.20;;;13.38;72.34;99521.97;3081354;46;20462;-66
2023/10/28 03:12:30;;;;;;;8.73;7.47;;;11.70;97.10;;;13.37;72.27;99533.59;3081771;46;20508;-67
2023/10/28 03:14:58;;;;;;;8.00;6.97;;;11.70;97.10;;;13.41;72.22;99532.09;3081091;46;20428;-66
2023/10/28 03:17:27;;;;;;;8.97;7.30;;;11.80;97.20;;;13.43;72.47;99535.31;3082011;46;20427;-66
2023/10/28 03:19:55;;;;;;;8.67;7.47;;;11.80;97.10;;;13.43;72.42;99537.19;3081472;46;20441;-66
2023/10/28 03:22:24;;;;;;;8.23;6.97;;;11.80;97.10;;;13.40;72.07;99533.16;3082020;46;20520;-67
2023/10/28 03:24:52;;;;;;;9.80;7.30;;;11.80;96.90;;;13.35;72.10;99535.66;3081460;46;20464;-66
2023/10/28 03:27:20;;;;;;;9.70;6.60;;;11.80;96.90;;;13.32;72.66;99544.00;3080023;46;20450;-67
2023/10/28 03:29:50;;;;;;;12.97;7.70;;;11.80;96.80;;;13.27;72.56;99540.41;3080530;46;20469;-67
2023/10/28 03:32:19;;;;;;;7.33;6.33;;;11.80;96.80;;;13.27;72.48;99546.50;3081402;46;20491;-67
2023/10/28 03:34:47;;;;;;;8.53;7.13;;;11.80;96.90;;;13.28;72.85;99548.13;3081196;46;20428;-67
2023/10/28 03:37:15;;;;;;;7.33;6.40;;;11.70;96.90;;;13.29;72.51;99544.44;3081851;46;20440;-67
2023/10/28 03:39:44;;;;;;;9.83;8.00;;;11.70;96.90;;;13.28;72.68;99542.84;3081182;46;20440;-67
2023/10/28 03:42:13;;;;;;;10.53;8.20;;;11.80;97.10;;;13.28;72.86;99542.03;3081120;46;20436;-67
2023/10/28 03:44:42;;;;;;;8.03;6.90;;;11.70;97.00;;;13.26;72.77;99539.63;3081546;46;20998;-67
2023/10/28 03:47:10;;;;;;;10.47;7.60;;;11.70;97.00;;;13.21;73.00;99539.47;3081717;46;20431;-67
2023/10/28 03:49:39;;;;;;;10.57;7.47;;;11.70;97.00;;;13.16;73.32;99547.25;3081069;46;21101;-67
2023/10/28 03:52:07;;;;;;;9.80;7.90;;;11.70;97.00;;;13.11;73.67;99538.38;3081510;46;21010;-66
2023/10/28 03:54:36;;;;;;;11.37;8.20;;;11.70;97.00;;;13.08;73.78;99542.25;3081430;46;20490;-66
2023/10/28 03:57:05;;;;;;;10.73;8.67;;;11.70;97.10;;;13.08;73.89;99546.72;3081177;46;20493;-67
2023/10/28 03:59:33;;;;;;;11.97;8.40;;;11.60;97.20;;;13.07;74.08;99545.94;3080939;46;20439;-67
2023/10/28 04:02:03;;;;;;;10.90;8.87;;;11.60;97.20;;;13.08;73.87;99544.91;3081205;46;20443;-65
2023/10/28 04:04:31;;;;;;;13.23;7.97;;;11.60;97.40;;;13.11;73.63;99547.09;3081751;46;20431;-66
2023/10/28 04:07:00;;;;;;;11.90;9.00;;;11.60;97.40;;;13.16;73.63;99549.91;3080934;46;21003;-66
2023/10/28 04:09:28;;;;;;;10.83;7.57;;;11.60;97.50;;;13.21;73.67;99551.88;3080713;46;20593;-66
2023/10/28 04:12:00;;;;;;;12.97;9.53;;;11.60;97.60;;;13.26;73.43;99549.38;3080782;46;20546;-64
2023/10/28 04:14:28;;;;;;;14.23;8.83;;;11.60;97.60;;;13.29;73.45;99548.91;3081391;46;20428;-66
2023/10/28 04:16:56;;;;;;;14.43;8.33;;;11.70;97.60;;;13.30;73.50;99551.38;3080870;46;20431;-67
2023/10/28 04:19:25;;;;;;;14.37;9.47;;;11.70;97.60;;;13.32;73.53;99546.66;3081029;46;20444;-67
2023/10/28 04:21:54;;;;;;;11.80;9.37;;;11.70;97.60;;;13.33;73.43;99552.75;3080208;46;20452;-67
2023/10/28 04:24:26;;;;;;;13.13;8.33;;;11.70;97.60;;;13.34;73.56;99546.44;3081172;46;20513;-66
2023/10/28 04:26:54;;;;;;;15.03;9.90;;;11.70;97.50;;;13.38;73.58;99553.69;3080502;46;20573;-67
2023/10/28 04:29:23;;;;;;;17.20;10.23;;;11.80;97.70;;;13.39;73.29;99552.66;3080815;46;20541;-66
2023/10/28 04:31:51;;;;;;;12.57;9.20;;;11.80;97.60;;;13.38;73.41;99543.13;3080794;46;20430;-67
2023/10/28 04:34:19;;;;;;;16.43;9.47;;;11.80;97.60;;;13.40;73.38;99541.09;3080897;46;21066;-66
2023/10/28 04:36:48;;;;;;;15.07;10.00;;;11.80;97.60;;;13.36;73.55;99545.19;3081209;46;20990;-65
2023/10/28 04:39:16;;;;;;;17.17;9.80;;;11.80;97.50;;;13.31;73.71;99547.69;3080689;46;20621;-67
2023/10/28 04:41:44;;;;;;;16.10;9.67;;;11.80;97.50;;;13.31;73.75;99536.31;3080996;46;20475;-67
2023/10/28 04:44:13;;;;;;;14.57;9.83;;;11.80;97.50;;;13.30;73.64;99535.50;3081030;46;20456;-64
2023/10/28 04:46:41;;;;;;;13.90;9.80;;;11.80;97.50;;;13.31;73.60;99541.59;3081128;46;20443;-65
2023/10/28 04:49:10;;;;;;;13.77;10.37;;;11.80;97.60;;;13.32;73.63;99528.16;3081003;46;21132;-67
2023/10/28 04:51:38;;;;;;;18.40;11.13;;;11.70;97.60;;;13.32;73.82;99533.44;3080678;46;20540;-68
2023/10/28 04:54:07;;;;;;;15.53;10.93;;;11.80;97.60;;;13.32;73.93;99525.50;3080884;46;20460;-67
2023/10/28 04:56:35;;;;;;;24.17;13.73;;;11.70;97.60;;;13.37;74.08;99533.59;3081067;46;20483;-69
2023/10/28 04:59:03;;;;;;;16.27;11.90;;;11.80;97.80;;;13.41;73.60;99532.09;3080239;46;21074;-67
2023/10/28 05:01:32;;;;;;;16.73;10.73;;;11.80;97.90;;;13.44;73.41;99538.78;3080696;46;21119;-67
2023/10/28 05:04:00;;;;;;;18.47;11.80;;;11.80;97.80;;;13.45;73.54;99541.19;3080669;46;20509;-66
2023/10/28 05:06:29;;;;;;;20.17;11.03;;;11.80;97.80;;;13.47;73.66;99541.81;3080592;46;21003;-67
2023/10/28 05:08:58;;;;;;;19.50;12.57;;;11.80;97.80;;;13.49;73.65;99545.03;3080248;46;20576;-68
2023/10/28 05:11:26;;;;;;;21.70;12.10;;;11.80;97.90;;;13.50;73.58;99541.34;3080615;46;20546;-67
2023/10/28 05:13:54;;;;;;;19.00;11.17;;;11.90;97.80;;;13.46;73.48;99544.66;3080776;46;20444;-67
2023/10/28 05:16:23;;;;;;;22.67;12.77;;;11.90;97.70;;;13.47;73.46;99547.09;3080549;46;20439;-66
2023/10/28 05:18:51;;;;;;;20.40;11.77;;;11.90;97.70;;;13.43;73.57;99540.63;3080533;46;20432;-67
2023/10/28 05:21:20;;;;;;;18.53;11.70;;;11.90;97.70;;;13.42;73.59;99544.31;3080192;46;20462;-67
2023/10/28 05:23:48;;;;;;;16.10;11.00;;;11.90;97.70;;;13.42;73.59;99549.59;3080591;46;20455;-70
2023/10/28 05:26:17;;;;;;;22.13;12.37;;;11.90;97.70;;;13.42;73.58;99560.16;3080233;46;20479;-66
2023/10/28 05:28:50;;;;;;;20.00;12.53;;;11.90;97.70;;;13.42;73.68;99559.34;3080225;46;20478;-66
2023/10/28 05:31:18;;;;;;;21.70;12.70;;;11.80;97.70;;;13.42;73.85;99554.06;3080023;46;20517;-67
2023/10/28 05:33:47;;;;;;;21.83;12.30;;;11.80;97.70;;;13.41;73.59;99547.16;3080090;46;20515;-67
2023/10/28 05:36:16;;;;;;;21.77;13.10;;;11.80;97.80;;;13.40;74.11;99551.66;3080569;46;20455;-67
2023/10/28 05:38:44;;;;;;;20.33;13.67;;;11.80;97.80;;;13.41;73.98;99553.25;3082891;46;20483;-67
2023/10/28 05:41:13;;;;;;;16.53;11.30;;;11.80;97.80;;;13.42;73.74;99554.06;3082765;46;20463;-66
2023/10/28 05:43:43;;;;;;;19.67;12.70;;;11.80;97.90;;;13.42;74.09;99562.81;3082874;46;21028;-67
2023/10/28 05:46:15;;;;;;;19.03;11.70;;;11.80;97.90;;;13.43;74.18;99566.25;3082747;46;20575;-66
2023/10/28 05:48:43;;;;;;;21.37;14.07;;;11.80;97.90;;;13.44;73.92;99563.38;3082643;46;20460;-69
2023/10/28 05:51:12;;;;;;;18.67;12.77;;;11.80;97.90;;;13.44;73.79;99563.38;3082387;46;20439;-67
2023/10/28 05:53:40;;;;;;;27.17;13.33;;;11.80;97.90;;;13.46;73.84;99566.63;3082786;46;20432;-67
2023/10/28 05:56:08;;;;;;;19.43;11.97;;;11.80;97.90;;;13.45;73.98;99567.63;3082802;46;21139;-67
2023/10/28 05:58:37;;;;;;;21.30;12.57;;;11.90;98.00;;;13.43;73.77;99561.75;3082337;46;20977;-67
2023/10/28 06:01:06;;;;;;;17.50;12.43;;;11.90;97.90;;;13.40;74.18;99564.88;3082867;46;20436;-67
2023/10/28 06:03:34;;;;;;;20.40;13.43;;;11.90;97.90;;;13.40;74.23;99562.22;3082660;46;20431;-67
2023/10/28 06:06:03;;;;;;;19.53;13.17;;;11.80;97.90;;;13.42;74.34;99575.22;3082671;46;20447;-67
2023/10/28 06:08:32;;;;;;;19.87;12.90;;;11.80;97.90;;;13.41;74.04;99571.75;3082368;46;21005;-67
2023/10/28 06:11:00;;;;;;;19.77;13.20;;;11.80;98.00;;;13.41;74.68;99578.88;3082312;46;20566;-67
2023/10/28 06:13:36;;;;;;;22.30;13.40;;;11.90;98.00;;;13.39;74.19;99581.75;3080048;46;20432;-70
2023/10/28 06:16:05;;;;;;;20.80;13.00;;;11.80;98.00;;;13.40;74.24;99580.72;3082723;46;20427;-67
2023/10/28 06:18:33;;;;;;;20.33;13.47;;;11.80;98.00;;;13.44;74.65;99583.72;3082338;46;20456;-67
2023/10/28 06:21:02;;;;;;;21.27;14.63;;;11.80;98.10;;;13.45;74.42;99580.84;3081941;46;21153;-66
2023/10/28 06:23:30;;;;;;;20.33;13.33;;;11.90;98.10;;;13.48;74.58;99585.69;3082474;46;21023;-67
2023/10/28 06:25:58;;;;;;;22.13;13.03;;;11.90;98.20;;;13.51;74.25;99595.84;3081929;46;20476;-67
2023/10/28 06:28:27;;;;;;;16.70;12.07;;;11.90;98.20;;;13.56;74.36;99603.09;3082413;46;20531;-65
2023/10/28 06:30:58;;;;;;;25.77;15.80;;;11.90;98.20;;;13.60;74.22;99598.19;3081772;46;20439;-67
2023/10/28 06:33:27;;;;;;;23.30;15.10;;;11.90;98.20;;;13.61;73.90;99599.78;3082282;46;21071;-67
2023/10/28 06:35:55;;;;;;;23.07;13.67;;;11.90;98.10;;;13.60;74.30;99603.47;3082379;46;20431;-67
2023/10/28 06:38:27;;;;;;;22.57;13.50;;;12.00;98.10;;;13.62;73.91;99607.50;3082225;46;20449;-66
2023/10/28 06:40:57;;;;;;;22.27;15.03;;;12.00;98.10;;;13.62;73.77;99601.41;3081745;46;20440;-68
2023/10/28 06:43:25;;;;;;;26.40;16.90;;;12.00;98.10;;;13.64;73.79;99609.94;3082220;46;20456;-67
2023/10/28 06:45:54;;;;;;;21.43;15.13;;;12.00;98.10;;;13.66;73.86;99605.22;3082288;46;20493;-67
2023/10/28 06:48:22;;;;;;;20.33;13.77;;;12.00;98.10;;;13.69;74.21;99607.44;3081061;46;20432;-66
2023/10/28 06:50:51;;;;;;;26.80;15.60;;;12.00;98.10;;;13.70;74.14;99609.03;3081575;46;20463;-66
2023/10/28 06:53:21;;;;;;;25.97;15.83;;;12.00;98.10;;;13.70;73.96;99611.66;3082168;46;20468;-66
2023/10/28 06:55:50;;;;;;;24.27;16.43;;;12.10;98.10;;;13.73;73.93;99608.59;3082035;46;20570;-68
2023/10/28 06:58:18;;;;;;;26.57;16.07;;;12.10;98.20;;;13.74;74.03;99616.28;3081711;46;20432;-68
2023/10/28 07:00:47;;;;;;;23.10;14.40;;;12.10;98.10;;;13.76;73.82;99614.25;3081769;46;20440;-66
2023/10/28 07:03:15;;;;;;;30.67;17.63;;;12.10;98.10;;;13.77;73.67;99620.34;3082191;46;20505;-67
2023/10/28 07:05:45;;;;;;;23.90;16.03;;;12.10;98.10;;;13.77;73.71;99618.50;3082063;46;20439;-66
2023/10/28 07:08:15;;;;;;;30.20;16.63;;;12.10;98.00;;;13.77;73.73;99621.16;3081668;46;20509;-64
2023/10/28 07:10:44;;;;;;;27.37;16.57;;;12.10;98.10;;;13.78;73.63;99632.53;3081575;46;21205;-68
2023/10/28 07:13:12;;;;;;;21.60;15.83;;;12.10;98.10;;;13.77;73.85;99625.63;3081523;46;20512;-67
2023/10/28 07:15:41;;;;;;;27.40;16.67;;;12.10;98.00;;;13.80;73.89;99630.47;3081901;46;20427;-66
2023/10/28 07:18:09;;;;;;;23.60;16.63;;;12.10;98.00;;;13.79;73.60;99628.84;3081957;46;20428;-67
2023/10/28 07:20:38;;;;;;;25.47;16.83;;;12.10;98.00;;;13.75;73.87;99635.63;3081206;46;20442;-67
2023/10/28 07:23:06;;;;;;;25.93;18.00;;;12.10;98.00;;;13.73;73.83;99635.03;3081575;46;20427;-66
2023/10/28 07:25:35;;;;;;;26.77;16.80;;;12.20;98.00;;;13.74;73.95;99647.25;3081696;46;20488;-65
2023/10/28 07:28:12;;;;;;;23.50;16.67;;;12.10;98.00;;;13.77;74.12;99652.06;3082016;46;20432;-66
2023/10/28 07:30:51;;;;;;;23.60;16.27;;;12.20;98.10;;;13.77;73.69;99652.06;3078673;43;20487;-66
2023/10/28 07:33:24;;;;;;;28.07;17.27;;;12.20;98.10;;;13.81;73.86;99653.25;3081038;46;21435;-66
2023/10/28 07:35:52;;;;;;;25.00;17.20;;;12.20;98.10;;;13.81;74.14;99654.03;3081246;46;20428;-67
2023/10/28 07:38:21;;;;;;;22.80;16.53;;;12.20;98.10;;;13.86;74.02;99653.41;3081113;46;20436;-67
2023/10/28 07:40:50;;;;;;;26.13;17.37;;;12.20;98.20;;;13.90;74.23;99651.91;3080894;46;20629;-67
2023/10/28 07:43:18;;;;;;;25.67;17.00;;;12.20;98.20;;;13.92;74.09;99652.50;3081399;46;20481;-67
2023/10/28 07:45:47;;;;;;;24.67;17.47;;;12.20;98.20;;;13.92;73.95;99655.97;3080035;46;20458;-67
2023/10/28 07:48:16;;;;;;;27.57;17.20;;;12.30;98.20;;;13.95;74.22;99662.66;3079879;46;21047;-66
2023/10/28 07:50:44;;;;;;;25.97;16.63;;;12.30;98.20;;;13.97;74.11;99663.22;3080178;46;20485;-67
2023/10/28 07:53:12;;;;;;;26.20;17.67;;;12.30;98.20;;;14.02;73.95;99663.38;3080057;46;20431;-66
2023/10/28 07:55:41;;;;;;;27.00;16.80;;;12.30;98.30;;;14.08;73.98;99659.81;3080750;46;20569;-67
2023/10/28 07:58:09;;;;;;;29.43;18.47;;;12.40;98.40;;;14.14;74.00;99664.22;3080888;46;20526;-68
2023/10/28 08:00:38;;;;;;;27.50;17.60;;;12.40;98.40;;;14.22;74.08;99666.53;3080125;46;20467;-67
2023/10/28 08:03:07;;;;;;;29.53;18.00;;;12.40;98.40;;;14.29;73.55;99672.56;3080014;43;20546;-67
2023/10/28 08:05:36;;;;;;;27.83;16.93;;;12.50;98.50;;;14.36;73.92;99669.88;3079130;46;20427;-66
2023/10/28 08:08:04;;;;;;;23.03;16.80;;;12.60;98.50;;;14.41;73.24;99676.09;3080980;46;21040;-67
2023/10/28 08:10:33;;;;;;;26.03;17.97;;;12.60;98.40;;;14.46;73.18;99678.88;3079142;46;20459;-69
2023/10/28 08:13:02;;;;;;;26.93;18.13;;;12.60;98.30;;;14.48;73.47;99684.75;3079749;46;21148;-67
2023/10/28 08:15:30;;;;;;;23.33;16.90;;;12.70;98.30;;;14.45;73.17;99679.91;3080969;46;20471;-67
2023/10/28 08:17:59;;;;;;;26.77;18.40;;;12.70;98.10;;;14.47;73.05;99687.63;3080845;46;21057;-67
2023/10/28 08:20:28;;;;;;;23.40;16.50;;;12.70;98.10;;;14.44;72.79;99686.22;3080304;46;20490;-68
2023/10/28 08:22:56;;;;;;;27.93;16.60;;;12.80;97.90;;;14.44;72.81;99688.88;3081201;46;20451;-67
2023/10/28 08:25:25;;;;;;;34.30;23.63;;;12.80;97.90;;;14.43;73.18;99695.19;3080963;46;20434;-67
2023/10/28 08:27:54;;;;;;;26.17;17.60;;;12.80;97.90;;;14.45;73.31;99692.34;3080087;46;20448;-69
2023/10/28 08:30:22;;;;;;;27.20;16.87;;;12.80;97.90;;;14.46;73.28;99694.75;3080601;46;20439;-66
2023/10/28 08:32:54;;;;;;;22.30;17.10;;;12.80;97.90;;;14.47;72.97;99699.03;3080989;46;20423;-67
2023/10/28 08:35:28;;;;;;;24.13;15.93;;;12.80;97.90;;;14.46;72.91;99700.03;3080813;46;20447;-65
2023/10/28 08:37:56;;;;;;;23.20;16.70;;;12.80;97.80;;;14.45;72.87;99698.44;3081295;46;20439;-68
2023/10/28 08:40:26;;;;;;;22.37;16.17;;;12.80;97.80;;;14.46;73.26;99704.53;3080523;46;20439;-68
2023/10/28 08:42:58;;;;;;;22.93;16.00;;;12.80;97.80;;;14.50;73.26;99695.91;3080913;46;20483;-67
2023/10/28 08:45:31;;;;;;;21.70;16.43;;;12.80;98.00;;;14.56;72.94;99692.38;3081123;46;20451;-67
2023/10/28 08:48:00;;;;;;;22.50;15.93;;;12.90;98.00;;;14.64;73.25;99707.13;3079829;46;20472;-67
2023/10/28 08:50:28;;;;;;;26.10;16.07;;;12.90;98.00;;;14.64;72.94;99709.78;3080342;46;20457;-68
2023/10/28 08:53:03;;;;;;;22.20;16.23;;;12.90;97.80;;;14.61;72.79;99708.41;3079772;46;20490;-67
2023/10/28 08:55:35;;;;;;;22.40;16.27;;;12.90;97.70;;;14.58;72.28;99708.84;3080404;46;20458;-67
2023/10/28 08:58:03;;;;;;;25.30;16.43;;;12.90;97.60;;;14.55;72.41;99708.47;3079833;43;20487;-67
2023/10/28 09:00:35;;;;;;;21.67;15.73;;;13.00;97.60;;;14.56;72.65;99716.22;3078913;46;21140;-68
2023/10/28 09:03:05;;;;;;;21.60;15.23;;;13.00;97.70;;;14.56;72.58;99716.22;3079346;46;20428;-67
2023/10/28 09:05:34;;;;;;;23.30;15.23;;;13.00;97.60;;;14.54;72.84;99715.63;3077951;46;21500;-68
2023/10/28 09:08:03;;;;;;;20.03;14.83;;;13.00;97.60;;;14.55;72.60;99713.75;3078019;46;21115;-67
2023/10/28 09:10:34;;;;;;;19.73;13.90;;;13.00;97.60;;;14.55;72.69;99714.56;3080711;43;20560;-68
2023/10/28 09:13:07;;;;;;;25.27;14.20;;;13.00;97.60;;;14.50;72.48;99711.00;3081394;46;20491;-68
2023/10/28 09:15:35;;;;;;;20.17;12.53;;;12.90;97.40;;;14.47;72.57;99717.56;3081669;46;21012;-67
2023/10/28 09:18:06;;;;;;;17.23;13.03;;;12.90;97.40;;;14.41;72.74;99723.75;3082203;46;21529;-68
2023/10/28 09:20:40;;;;;;;17.43;13.37;;;12.90;97.50;;;14.41;72.72;99721.09;3082106;46;20438;-67
2023/10/28 09:23:09;;;;;;;17.93;12.67;;;12.90;97.40;;;14.47;73.35;99736.09;3082531;46;20484;-66
2023/10/28 09:25:37;;;;;;;15.67;11.67;;;12.90;97.60;;;14.54;72.92;99723.56;3082319;46;20438;-68
2023/10/28 09:28:15;;;;;;;18.73;13.10;;;12.90;97.70;;;14.60;72.84;99727.97;3082702;46;20455;-67
2023/10/28 09:30:47;;;;;;;15.70;11.73;;;13.00;97.80;;;14.69;72.91;99731.91;3080620;43;20462;-67
2023/10/28 09:33:17;;;;;;;16.87;11.30;;;13.00;97.90;;;14.78;72.85;99733.22;3082476;46;20447;-67
2023/10/28 09:35:46;;;;;;;16.13;12.70;;;13.00;97.90;;;14.86;72.46;99738.16;3082123;46;20478;-66
2023/10/28 09:38:15;;;;;;;15.20;10.70;;;13.10;97.90;;;14.93;72.60;99738.06;3082245;46;20469;-68
2023/10/28 09:40:43;;;;;;;19.47;11.53;;;13.10;97.90;;;14.96;71.88;99739.44;3081512;46;20460;-67
2023/10/28 09:43:15;;;;;;;19.07;10.87;;;13.20;97.80;;;15.00;72.01;99740.63;3081777;46;20455;-66
2023/10/28 09:45:51;;;;;;;14.50;10.60;;;13.20;97.80;;;14.99;71.92;99741.66;3081939;46;21058;-69
2023/10/28 09:48:20;;;;;;;16.17;10.37;;;13.30;97.60;;;15.04;71.68;99750.53;3081892;46;21047;-68
2023/10/28 09:50:50;;;;;;;15.97;10.10;;;13.30;97.50;;;15.06;71.49;99737.06;3081322;46;20492;-66
2023/10/28 09:53:42;;;;;;;11.97;9.13;;;13.30;97.50;;;15.07;71.84;99749.28;3082455;46;20432;-67
2023/10/28 09:56:13;;;;;;;10.17;8.90;;;13.30;97.50;;;15.15;71.85;99746.28;3082240;46;20517;-66
2023/10/28 09:59:02;;;;;;;13.03;8.83;;;13.40;97.50;;;15.15;71.23;99747.09;3080422;46;20451;-67
2023/10/28 10:01:42;;;;;;;13.43;8.83;;;13.40;97.40;;;15.16;71.14;99748.72;3081685;46;20995;-68
2023/10/28 10:04:42;;;;;;;13.00;8.00;;;13.40;97.30;;;15.06;70.72;99742.34;3081372;46;20617;-67
2023/10/28 10:07:10;;;;;;;10.40;7.77;;;13.50;96.80;;;15.11;70.93;99745.94;3081150;46;20456;-66
2023/10/28 10:09:43;;;;;;;13.93;8.07;;;13.50;97.00;;;15.20;71.16;99749.06;3081113;46;20474;-67
2023/10/28 10:12:12;;;;;;;12.20;7.57;;;13.50;97.20;;;15.27;70.77;99742.63;3082517;46;20504;-67
2023/10/28 10:14:46;;;;;;;12.50;7.70;;;13.50;97.10;;;15.29;70.39;99742.38;3082544;46;20427;-66
2023/10/28 10:18:04;;;;;;;9.37;7.57;;;13.50;97.20;;;15.26;70.62;99743.66;3082538;46;20476;-67
2023/10/28 10:20:35;;;;;;;11.80;6.87;;;13.60;96.90;;;15.30;70.20;99738.72;3081720;46;21140;-68
2023/10/28 10:23:03;;;;;;;11.07;6.90;;;13.60;96.80;;;15.34;70.82;99731.91;3081841;46;20518;-67